Time;durP1;ratioP1;P1;durP2;ratioP2;P2;SDS_P1;SDS_P2;PMS_P1;PMS_P2;Temp;Humidity;BMP_temperature;BMP_pressure;BME280_temperature;BME280_humidity;BME280_pressure;Samples;Min_cycle;Max_cycle;Signal;HPM_P1;HPM_P2
2022/05/29 00:01:14;;;;;;;;;2.00;1.00;;;;;14.14;43.66;101639.09;5043585;28;45578;-62
2022/05/29 00:03:39;;;;;;;;;1.00;1.00;;;;;14.17;43.61;101641.63;5054362;28;45516;-62
2022/05/29 00:06:08;;;;;;;;;1.00;1.00;;;;;14.18;43.54;101642.47;5054209;28;68070;-62
2022/05/29 00:08:37;;;;;;;;;1.00;1.00;;;;;14.11;43.57;101635.72;5057462;28;45390;-62
2022/05/29 00:11:02;;;;;;;;;1.00;1.00;;;;;14.01;43.76;101630.81;5038843;28;45555;-62
2022/05/29 00:13:28;;;;;;;;;1.00;1.00;;;;;14.01;43.99;101632.66;5055053;28;45510;-62
2022/05/29 00:15:54;;;;;;;;;1.00;0.00;;;;;13.95;43.98;101630.28;5052663;28;46131;-62
2022/05/29 00:18:19;;;;;;;;;0.33;0.33;;;;;13.93;43.89;101626.84;5052719;28;45454;-62
2022/05/29 00:20:49;;;;;;;;;2.00;1.00;;;;;13.88;44.18;101621.72;5056502;28;45755;-62
2022/05/29 00:23:14;;;;;;;;;1.33;1.33;;;;;13.83;44.25;101623.75;5057606;28;45384;-62
2022/05/29 00:25:41;;;;;;;;;1.67;0.33;;;;;13.81;44.33;101620.31;5045655;28;46070;-62
2022/05/29 00:28:07;;;;;;;;;2.00;1.00;;;;;13.78;44.32;101626.66;5054203;28;45991;-62
2022/05/29 00:30:32;;;;;;;;;1.00;1.00;;;;;13.75;44.57;101617.94;5053402;28;60648;-62
2022/05/29 00:32:58;;;;;;;;;1.00;0.00;;;;;13.73;44.45;101618.88;5052543;28;45447;-62
2022/05/29 00:35:23;;;;;;;;;0.00;0.00;;;;;13.76;44.51;101617.00;5053165;28;61651;-62
2022/05/29 00:37:48;;;;;;;;;0.67;0.67;;;;;13.70;44.42;101616.34;5053407;28;54482;-64
2022/05/29 00:40:26;;;;;;;;;1.00;1.00;;;;;13.66;44.67;101614.78;5053524;28;45490;-62
2022/05/29 00:42:51;;;;;;;;;0.33;0.33;;;;;13.63;45.05;101616.75;5054101;28;45695;-62
2022/05/29 00:45:21;;;;;;;;;2.00;2.00;;;;;13.56;44.67;101613.50;5052756;28;68011;-62
2022/05/29 00:47:47;;;;;;;;;1.00;1.00;;;;;13.51;44.88;101615.56;5053519;28;45651;-62
2022/05/29 00:50:17;;;;;;;;;1.00;1.00;;;;;13.50;45.04;101608.47;5054150;28;46621;-62
2022/05/29 00:52:42;;;;;;;;;2.00;0.00;;;;;13.46;45.17;101610.41;5053376;28;45649;-62
2022/05/29 00:55:18;;;;;;;;;1.33;1.00;;;;;13.41;45.42;101609.78;5038022;28;62956;-62
2022/05/29 00:57:51;;;;;;;;;1.67;1.00;;;;;13.32;45.29;101613.72;5037512;28;45552;-65
2022/05/29 01:00:25;;;;;;;;;1.00;1.00;;;;;13.28;45.94;101612.16;5070258;27;45509;-63
2022/05/29 01:02:52;;;;;;;;;1.67;1.67;;;;;13.25;45.87;101606.97;5053234;28;45522;-63
2022/05/29 01:05:19;;;;;;;;;1.00;1.00;;;;;13.18;46.24;101610.84;5054620;28;45484;-65
2022/05/29 01:07:46;;;;;;;;;1.00;1.00;;;;;13.16;46.13;101608.25;5052906;28;46625;-63
2022/05/29 01:10:12;;;;;;;;;1.00;1.00;;;;;13.09;46.46;101609.50;5053340;28;45488;-62
2022/05/29 01:12:54;;;;;;;;;1.00;1.00;;;;;12.97;46.40;101610.97;5052581;28;59162;-61
2022/05/29 01:15:29;;;;;;;;;2.00;2.00;;;;;12.94;46.70;101603.06;5036586;28;46360;-63
2022/05/29 01:18:10;;;;;;;;;2.00;1.00;;;;;12.90;47.00;101602.34;5052274;28;45668;-65
2022/05/29 01:20:35;;;;;;;;;1.00;1.00;;;;;12.86;47.22;101603.44;5053871;28;45462;-65
2022/05/29 01:23:19;;;;;;;;;1.33;0.33;;;;;12.83;47.26;101605.41;5055146;28;46606;-65
2022/05/29 01:26:07;;;;;;;;;1.33;1.33;;;;;12.78;47.34;101602.09;5056346;28;46238;-63
2022/05/29 01:28:44;;;;;;;;;1.00;1.00;;;;;12.74;47.68;101596.00;5057574;28;45550;-63
2022/05/29 01:31:23;;;;;;;;;1.00;1.00;;;;;12.65;47.95;101596.44;5056551;28;45563;-63
2022/05/29 01:33:57;;;;;;;;;1.00;1.00;;;;;12.55;48.42;101591.53;5055835;28;45702;-64
2022/05/29 01:36:31;;;;;;;;;1.00;1.00;;;;;12.50;48.84;101584.66;5038329;28;46224;-62
2022/05/29 01:39:00;;;;;;;;;0.67;0.67;;;;;12.38;48.75;101586.09;5054483;28;45775;-62
2022/05/29 01:41:53;;;;;;;;;1.00;1.00;;;;;12.32;49.29;101589.03;5056396;28;45912;-63
2022/05/29 01:44:26;;;;;;;;;3.00;2.00;;;;;12.29;50.22;101589.16;5039695;28;46052;-63
2022/05/29 01:46:56;;;;;;;;;1.00;1.00;;;;;12.25;49.43;101585.75;5041532;28;46655;-63
2022/05/29 01:49:30;;;;;;;;;2.00;1.00;;;;;12.24;49.94;101579.56;5039940;28;46678;-63
2022/05/29 01:52:00;;;;;;;;;2.00;2.00;;;;;12.20;49.78;101582.44;5057100;28;45486;-64
2022/05/29 01:54:38;;;;;;;;;1.67;1.67;;;;;12.20;50.18;101580.66;5055902;28;45592;-63
2022/05/29 01:57:06;;;;;;;;;2.00;2.00;;;;;12.18;50.38;101581.66;5055680;28;45482;-63
2022/05/29 01:59:41;;;;;;;;;1.00;1.00;;;;;12.16;50.70;101587.06;5040635;28;45529;-63
2022/05/29 02:02:13;;;;;;;;;3.00;1.00;;;;;12.09;50.49;101580.25;5056460;28;45513;-63
2022/05/29 02:04:43;;;;;;;;;2.00;2.00;;;;;12.03;50.48;101577.84;5037339;28;45471;-63
2022/05/29 02:10:01;;;;;;;;;3.00;2.00;;;;;12.00;50.80;101586.84;5055114;28;45496;-63
2022/05/29 02:12:27;;;;;;;;;1.00;1.00;;;;;12.00;50.92;101581.50;5057094;28;45683;-62
2022/05/29 02:15:00;;;;;;;;;2.00;2.00;;;;;12.00;51.00;101584.19;5046016;28;45621;-62
2022/05/29 02:17:32;;;;;;;;;2.00;2.00;;;;;11.98;51.00;101575.41;5055247;28;46119;-62
2022/05/29 02:20:03;;;;;;;;;1.00;1.00;;;;;11.92;51.58;101575.63;5037853;28;45507;-62
2022/05/29 02:22:30;;;;;;;;;4.00;1.00;;;;;11.85;51.52;101577.69;5057149;28;45520;-62
2022/05/29 02:25:04;;;;;;;;;1.67;1.67;;;;;11.83;51.33;101579.53;5055435;28;46611;-62
2022/05/29 02:27:52;;;;;;;;;1.00;1.00;;;;;11.86;51.33;101567.88;5041514;28;45507;-62
2022/05/29 02:30:18;;;;;;;;;3.33;2.00;;;;;11.92;51.30;101568.47;5056089;28;45530;-61
2022/05/29 02:32:56;;;;;;;;;0.67;0.67;;;;;11.97;51.34;101570.09;5058286;28;45501;-62
2022/05/29 02:35:29;;;;;;;;;1.00;1.00;;;;;12.00;51.21;101570.84;5058763;28;45597;-61
2022/05/29 02:38:01;;;;;;;;;1.33;1.33;;;;;11.99;51.17;101571.78;5040743;28;45483;-62
2022/05/29 02:40:51;;;;;;;;;2.00;1.67;;;;;12.00;50.98;101568.19;5057041;28;45462;-61
2022/05/29 02:43:21;;;;;;;;;2.00;2.00;;;;;12.01;51.51;101567.25;5058543;28;45799;-61
2022/05/29 02:46:08;;;;;;;;;5.00;2.00;;;;;12.00;51.33;101565.50;5058331;28;45594;-61
2022/05/29 02:48:59;;;;;;;;;3.00;2.00;;;;;11.97;51.42;101565.66;5055765;28;46417;-61
2022/05/29 02:51:30;;;;;;;;;1.00;1.00;;;;;11.89;51.60;101559.78;5059891;28;45517;-62
2022/05/29 02:53:55;;;;;;;;;2.33;2.00;;;;;11.81;51.59;101564.53;5061873;28;45413;-62
2022/05/29 02:56:21;;;;;;;;;2.00;2.00;;;;;11.80;51.52;101560.16;5058151;28;45292;-62
2022/05/29 02:58:49;;;;;;;;;1.67;1.67;;;;;11.78;52.03;101557.53;5058877;28;66940;-62
2022/05/29 03:01:30;;;;;;;;;2.00;1.33;;;;;11.76;52.13;101554.09;5062687;28;45292;-62
2022/05/29 03:04:23;;;;;;;;;2.00;2.00;;;;;11.72;52.22;101548.03;5061273;28;45386;-63
2022/05/29 03:07:09;;;;;;;;;2.67;1.33;;;;;11.68;51.88;101553.53;5057158;28;45684;-64
2022/05/29 03:10:02;;;;;;;;;3.00;3.00;;;;;11.65;52.18;101549.22;5046994;28;46205;-62
2022/05/29 03:12:46;;;;;;;;;2.67;2.67;;;;;11.59;52.43;101544.16;5058906;28;45501;-62
2022/05/29 03:15:11;;;;;;;;;3.00;2.00;;;;;11.61;52.23;101546.75;5056004;28;45501;-62
2022/05/29 03:18:02;;;;;;;;;1.67;1.67;;;;;11.58;52.89;101548.59;5061183;28;45643;-63
2022/05/29 03:21:02;;;;;;;;;2.67;1.00;;;;;11.58;52.34;101555.75;5057583;28;45282;-62
2022/05/29 03:23:51;;;;;;;;;3.00;1.00;;;;;11.56;52.62;101545.16;5041597;28;45699;-62
2022/05/29 03:26:42;;;;;;;;;1.00;1.00;;;;;11.54;52.70;101546.16;5057110;28;45443;-62
2022/05/29 03:29:11;;;;;;;;;2.00;2.00;;;;;11.52;53.12;101542.69;5062552;28;45333;-62
2022/05/29 03:31:38;;;;;;;;;3.00;2.00;;;;;11.56;53.04;101546.94;5057014;28;46364;-62
2022/05/29 03:34:04;;;;;;;;;2.00;1.67;;;;;11.56;52.84;101538.94;5059131;28;45421;-62
2022/05/29 03:36:29;;;;;;;;;3.00;2.00;;;;;11.56;52.84;101541.63;5041813;28;45391;-62
2022/05/29 03:38:55;;;;;;;;;2.00;2.00;;;;;11.53;52.89;101537.28;5058915;28;45450;-62
2022/05/29 03:41:39;;;;;;;;;3.00;3.00;;;;;11.56;53.06;101539.84;5057675;28;46679;-62
2022/05/29 03:44:05;;;;;;;;;3.00;2.00;;;;;11.56;52.82;101534.50;5041555;28;45457;-62
2022/05/29 03:46:30;;;;;;;;;3.00;2.00;;;;;11.56;52.98;101533.63;5056920;28;45248;-62
2022/05/29 03:48:55;;;;;;;;;1.67;1.67;;;;;11.58;53.07;101526.44;5057655;28;45410;-62
2022/05/29 03:51:21;;;;;;;;;2.67;2.33;;;;;11.58;52.58;101527.28;5058946;28;64265;-62
2022/05/29 03:53:46;;;;;;;;;2.00;2.00;;;;;11.56;52.80;101525.63;5056815;28;61139;-63
2022/05/29 03:56:11;;;;;;;;;0.67;0.67;;;;;11.54;52.90;101535.50;5057438;28;61372;-62
2022/05/29 03:58:37;;;;;;;;;1.00;1.00;;;;;11.49;52.83;101524.16;5057289;28;45412;-62
2022/05/29 04:01:02;;;;;;;;;1.00;1.00;;;;;11.44;53.22;101534.16;5050042;28;67475;-62
2022/05/29 04:03:28;;;;;;;;;2.33;1.00;;;;;11.40;53.77;101522.75;5058329;28;45519;-62
2022/05/29 04:05:54;;;;;;;;;1.00;1.00;;;;;11.37;53.67;101528.22;5056896;28;58065;-63
2022/05/29 04:13:47;;;;;;;;;2.00;2.00;;;;;11.37;53.83;101528.22;5057526;28;45836;-63
2022/05/29 04:16:14;;;;;;;;;3.67;2.00;;;;;11.34;53.60;101533.66;5058411;28;61284;-63
2022/05/29 04:18:40;;;;;;;;;2.00;1.00;;;;;11.30;53.86;101532.06;5054508;28;45461;-63
2022/05/29 04:21:05;;;;;;;;;2.00;2.00;;;;;11.27;54.17;101537.53;5058086;28;45352;-63
2022/05/29 04:23:32;;;;;;;;;2.00;2.00;;;;;11.27;54.79;101534.84;5059926;28;45258;-62
2022/05/29 04:25:57;;;;;;;;;4.00;2.33;;;;;11.26;54.00;101539.28;5057704;28;45491;-63
2022/05/29 04:28:22;;;;;;;;;2.67;2.67;;;;;11.27;54.19;101542.84;5061843;28;58338;-63
2022/05/29 04:30:48;;;;;;;;;2.00;2.00;;;;;11.30;54.15;101532.06;5057186;28;45863;-63
2022/05/29 04:33:13;;;;;;;;;2.00;2.00;;;;;11.36;54.20;101534.47;5058691;28;45493;-63
2022/05/29 04:35:49;;;;;;;;;3.33;3.00;;;;;11.40;53.93;101534.25;5057146;28;45431;-64
2022/05/29 04:38:15;;;;;;;;;2.00;2.00;;;;;11.39;53.99;101527.22;5059617;28;46221;-62
2022/05/29 04:40:42;;;;;;;;;2.00;1.00;;;;;11.37;54.01;101529.06;5055340;28;45498;-62
2022/05/29 04:43:09;;;;;;;;;1.00;1.00;;;;;11.29;54.32;101527.66;5057593;28;45483;-61
2022/05/29 04:45:34;;;;;;;;;3.33;2.00;;;;;11.27;54.48;101522.41;5057608;28;45408;-62
2022/05/29 04:48:00;;;;;;;;;2.00;2.00;;;;;11.29;54.40;101530.31;5043205;28;45436;-62
2022/05/29 04:50:25;;;;;;;;;2.00;2.00;;;;;11.31;54.30;101521.31;5057188;28;67367;-62
2022/05/29 04:52:51;;;;;;;;;2.00;2.00;;;;;11.32;54.34;101524.88;5059940;28;45321;-61
2022/05/29 04:55:17;;;;;;;;;3.67;2.00;;;;;11.35;54.37;101525.59;5061113;28;60838;-62
2022/05/29 04:57:43;;;;;;;;;2.00;2.00;;;;;11.39;54.34;101527.22;5059340;28;45299;-62
2022/05/29 05:00:09;;;;;;;;;1.33;1.33;;;;;11.42;54.45;101526.22;5061239;28;46820;-61
2022/05/29 05:02:35;;;;;;;;;5.00;2.00;;;;;11.45;54.25;101526.09;5064295;28;45387;-61
2022/05/29 05:05:00;;;;;;;;;2.00;2.00;;;;;11.42;54.17;101523.56;5064126;28;45697;-62
2022/05/29 05:07:25;;;;;;;;;1.00;1.00;;;;;11.40;54.37;101531.59;5061156;28;45230;-62
2022/05/29 05:09:51;;;;;;;;;1.67;1.67;;;;;11.38;54.82;101530.81;5058814;28;67155;-62
2022/05/29 05:12:16;;;;;;;;;4.00;2.00;;;;;11.33;54.59;101527.47;5062656;28;62948;-63
2022/05/29 05:14:42;;;;;;;;;2.00;1.33;;;;;11.34;54.33;101523.88;5059830;28;59959;-62
2022/05/29 05:17:08;;;;;;;;;4.00;1.00;;;;;11.33;54.75;101526.59;5061343;28;60195;-62
2022/05/29 05:19:33;;;;;;;;;2.00;2.00;;;;;11.35;54.75;101519.41;5057386;28;45947;-62
2022/05/29 05:22:00;;;;;;;;;1.67;1.67;;;;;11.39;54.65;101526.34;5063017;28;45353;-62
2022/05/29 05:24:27;;;;;;;;;2.00;2.00;;;;;11.49;54.91;101526.84;5061069;28;45773;-62
2022/05/29 05:26:52;;;;;;;;;1.00;1.00;;;;;11.48;54.89;101525.09;5061389;28;45640;-62
2022/05/29 05:29:17;;;;;;;;;1.67;1.67;;;;;11.50;54.79;101525.88;5060549;28;60421;-62
2022/05/29 05:31:43;;;;;;;;;2.67;2.67;;;;;11.53;54.69;101528.44;5061463;28;63826;-62
2022/05/29 05:34:08;;;;;;;;;2.00;2.00;;;;;11.52;54.72;101524.88;5060205;28;60134;-62
2022/05/29 05:36:33;;;;;;;;;3.33;2.00;;;;;11.52;54.83;101527.53;5062239;28;58891;-62
2022/05/29 05:38:59;;;;;;;;;2.33;1.67;;;;;11.54;54.63;101527.50;5060749;28;46049;-61
2022/05/29 05:41:24;;;;;;;;;4.00;2.33;;;;;11.52;54.91;101519.56;5064939;28;45443;-61
2022/05/29 05:43:50;;;;;;;;;2.33;2.00;;;;;11.54;54.85;101524.84;5059967;28;45493;-61
2022/05/29 05:46:17;;;;;;;;;1.33;1.33;;;;;11.60;54.64;101521.91;5060280;28;48963;-62
2022/05/29 05:48:43;;;;;;;;;4.00;1.00;;;;;11.65;54.75;101533.22;5059080;28;46150;-62
2022/05/29 05:51:09;;;;;;;;;2.00;2.00;;;;;11.70;54.63;101525.03;5052975;28;45473;-61
2022/05/29 05:53:36;;;;;;;;;1.00;1.00;;;;;11.73;54.44;101531.13;5059388;28;45513;-61
2022/05/29 05:56:05;;;;;;;;;2.33;2.33;;;;;11.75;54.78;101529.22;5049733;28;45494;-62
2022/05/29 05:58:31;;;;;;;;;2.33;2.33;;;;;11.77;54.42;101523.81;5061539;28;45285;-62
2022/05/29 06:00:56;;;;;;;;;2.00;1.00;;;;;11.82;54.43;101529.81;5059575;28;45548;-62
2022/05/29 06:03:22;;;;;;;;;2.00;2.00;;;;;11.88;54.64;101526.03;5059252;28;61888;-62
2022/05/29 06:05:48;;;;;;;;;1.33;1.33;;;;;11.93;54.24;101521.38;5053124;28;61882;-62
2022/05/29 06:08:14;;;;;;;;;3.00;0.00;;;;;11.96;54.25;101520.41;5061227;28;46167;-61
2022/05/29 06:10:40;;;;;;;;;1.00;1.00;;;;;11.99;54.16;101525.59;5052209;28;45665;-62
2022/05/29 06:13:07;;;;;;;;;1.00;1.00;;;;;12.00;54.00;101520.19;5064455;28;48227;-62
2022/05/29 06:15:32;;;;;;;;;3.33;2.00;;;;;12.02;53.76;101517.44;5055111;28;45572;-62
2022/05/29 06:17:58;;;;;;;;;1.33;1.33;;;;;12.05;53.84;101512.00;5058483;28;46560;-61
2022/05/29 06:20:24;;;;;;;;;2.00;2.00;;;;;12.12;53.84;101510.75;5055756;28;45785;-62
2022/05/29 06:22:50;;;;;;;;;4.00;1.00;;;;;12.20;53.46;101513.09;5062954;28;45573;-63
2022/05/29 06:25:15;;;;;;;;;1.00;1.00;;;;;12.30;53.22;101505.53;5064107;28;45471;-62
2022/05/29 06:27:43;;;;;;;;;1.00;1.00;;;;;12.35;53.10;101501.72;5060139;28;64878;-62
2022/05/29 06:30:11;;;;;;;;;1.33;1.33;;;;;12.47;52.97;101504.75;5063305;28;45431;-62
2022/05/29 06:32:37;;;;;;;;;1.00;1.00;;;;;12.60;52.74;101500.56;5067397;28;45312;-62
2022/05/29 06:35:03;;;;;;;;;1.00;1.00;;;;;12.74;52.77;101503.44;5068426;28;55806;-62
2022/05/29 06:37:29;;;;;;;;;1.67;1.00;;;;;12.89;52.22;101508.97;5068328;28;47168;-62
2022/05/29 06:39:55;;;;;;;;;1.00;1.00;;;;;13.02;51.90;101506.56;5055567;28;45443;-62
2022/05/29 06:42:21;;;;;;;;;1.00;1.00;;;;;13.14;51.45;101506.00;5060516;28;45503;-63
2022/05/29 06:44:46;;;;;;;;;0.00;0.00;;;;;13.25;51.29;101505.44;5058339;28;45697;-62
2022/05/29 06:47:14;;;;;;;;;2.67;0.00;;;;;13.40;51.04;101504.72;5055445;28;65204;-63
2022/05/29 06:49:39;;;;;;;;;2.67;1.00;;;;;13.60;50.34;101512.63;5057729;28;45532;-62
2022/05/29 06:52:09;;;;;;;;;2.00;2.00;;;;;13.77;49.80;101511.78;5057941;28;52626;-59
2022/05/29 06:54:36;;;;;;;;;1.00;1.00;;;;;13.95;49.79;101516.16;5055569;28;46927;-63
2022/05/29 06:57:02;;;;;;;;;3.33;1.00;;;;;14.14;49.35;101508.00;5056514;28;46242;-63
2022/05/29 06:59:27;;;;;;;;;0.67;0.67;;;;;14.32;48.93;101513.31;5057654;28;45808;-62
2022/05/29 07:07:22;;;;;;;;;1.00;1.00;;;;;14.88;47.77;101503.94;5055846;28;45764;-62
2022/05/29 07:09:48;;;;;;;;;2.00;1.33;;;;;15.09;47.31;101513.53;5062957;28;63626;-63
2022/05/29 07:12:17;;;;;;;;;1.67;1.00;;;;;15.27;47.17;101492.84;5057728;28;45727;-62
2022/05/29 07:14:47;;;;;;;;;0.67;0.67;;;;;15.45;46.95;101498.91;5054171;28;45516;-62
2022/05/29 07:17:12;;;;;;;;;1.00;1.00;;;;;15.64;46.04;101499.53;5057579;28;46249;-47
2022/05/29 07:19:40;;;;;;;;;0.00;0.00;;;;;15.81;46.52;101501.25;5055883;28;46669;-48
2022/05/29 07:22:06;;;;;;;;;4.00;1.00;;;;;16.01;44.79;101504.53;5057098;28;45476;-49
2022/05/29 07:24:35;;;;;;;;;1.00;1.00;;;;;16.21;44.60;101498.75;5054462;28;45668;-47
2022/05/29 07:27:01;;;;;;;;;0.00;0.00;;;;;16.37;44.21;101495.09;5057333;28;45245;-51
2022/05/29 07:29:26;;;;;;;;;0.00;0.00;;;;;16.54;43.69;101492.22;5059110;28;45545;-51
2022/05/29 07:31:53;;;;;;;;;0.00;0.00;;;;;16.70;43.71;101496.59;5056659;28;45627;-49
2022/05/29 07:34:18;;;;;;;;;2.67;1.00;;;;;16.85;43.25;101500.94;5061195;28;45611;-51
2022/05/29 07:36:44;;;;;;;;;0.00;0.00;;;;;16.99;42.55;101486.66;5054883;28;46162;-51
2022/05/29 07:39:09;;;;;;;;;3.33;0.67;;;;;17.21;41.32;101485.22;5056080;28;45510;-49
2022/05/29 07:44:19;;;;;;;;;2.00;1.00;;;;;17.33;40.67;101487.06;5061216;28;45417;-48
2022/05/29 07:46:45;;;;;;;;;4.00;2.00;;;;;17.22;40.97;101488.75;5053708;28;46113;-50
2022/05/29 07:49:10;;;;;;;;;1.00;1.00;;;;;17.01;41.03;101492.78;5064922;28;46646;-48
2022/05/29 07:51:35;;;;;;;;;1.00;1.00;;;;;16.74;40.98;101491.88;5059700;28;45497;-46
2022/05/29 07:54:01;;;;;;;;;3.00;1.00;;;;;16.54;40.67;101497.59;5057960;28;45564;-49
2022/05/29 07:56:27;;;;;;;;;1.00;1.00;;;;;16.72;41.24;101493.81;5057468;28;46684;-50
2022/05/29 07:58:52;;;;;;;;;2.00;1.00;;;;;16.99;40.66;101493.88;5057166;28;45486;-50
2022/05/29 08:01:17;;;;;;;;;1.00;1.00;;;;;17.32;40.18;101492.56;5057118;28;58201;-49
2022/05/29 08:03:42;;;;;;;;;1.67;0.67;;;;;17.75;39.76;101488.75;5056828;28;50020;-51
2022/05/29 08:06:08;;;;;;;;;1.67;0.33;;;;;17.93;39.35;101489.34;5056855;28;61473;-49
2022/05/29 08:08:33;;;;;;;;;1.33;0.33;;;;;17.91;39.67;101484.00;5060428;28;45467;-48
2022/05/29 08:10:59;;;;;;;;;2.00;1.00;;;;;18.20;39.46;101489.22;5059389;28;45493;-49
2022/05/29 08:13:24;;;;;;;;;3.33;0.33;;;;;18.71;37.48;101481.94;5058419;28;46602;-49
2022/05/29 08:15:50;;;;;;;;;0.00;0.00;;;;;19.29;38.64;101484.84;5056230;28;66053;-45
2022/05/29 08:18:16;;;;;;;;;1.25;0.25;;;;;19.80;35.57;101484.50;5054188;28;45437;-47
2022/05/29 08:20:41;;;;;;;;;0.25;0.25;;;;;20.31;37.35;101475.09;5055607;28;54377;-45
2022/05/29 08:23:07;;;;;;;;;1.75;0.00;;;;;20.79;36.11;101473.94;5056654;28;45410;-49
2022/05/29 08:31:01;;;;;;;;;0.00;0.00;;;;;21.86;33.39;101467.63;5059473;28;46501;-45
2022/05/29 08:33:32;;;;;;;;;0.00;0.00;;;;;22.33;33.26;101460.84;5063390;28;61491;-50
2022/05/29 08:36:01;;;;;;;;;0.00;0.00;;;;;22.45;31.38;101459.78;5064364;28;46110;-48
2022/05/29 08:38:28;;;;;;;;;0.00;0.00;;;;;22.08;32.22;101460.31;5055661;28;45229;-46
2022/05/29 08:40:59;;;;;;;;;0.00;0.00;;;;;21.45;31.73;101458.53;5062901;28;45572;-46
2022/05/29 08:43:32;;;;;;;;;0.00;0.00;;;;;20.91;32.58;101453.13;5057723;28;46773;-46
2022/05/29 08:46:00;;;;;;;;;1.00;0.00;;;;;20.96;32.86;101455.44;5057505;28;45662;-47
2022/05/29 08:48:27;;;;;;;;;0.00;0.00;;;;;21.46;33.46;101453.00;5041892;28;45593;-48
2022/05/29 08:51:00;;;;;;;;;0.00;0.00;;;;;21.83;32.84;101456.22;5058320;28;45532;-46
2022/05/29 08:53:26;;;;;;;;;0.00;0.00;;;;;21.79;32.05;101455.63;5037695;28;45522;-48
2022/05/29 08:55:57;;;;;;;;;0.75;0.75;;;;;21.41;32.27;101446.25;5058550;28;46199;-48
2022/05/29 08:58:32;;;;;;;;;0.00;0.00;;;;;20.90;32.47;101440.59;5057243;28;45812;-46
2022/05/29 09:01:01;;;;;;;;;1.33;1.33;;;;;20.35;32.48;101451.41;5053304;28;45462;-47
2022/05/29 09:03:46;;;;;;;;;0.67;0.00;;;;;19.86;33.54;101448.09;5035967;28;45517;-46
2022/05/29 09:06:28;;;;;;;;;2.50;0.75;;;;;19.61;33.56;101446.44;5055673;28;46617;-47
2022/05/29 09:08:59;;;;;;;;;1.00;0.00;;;;;19.75;33.52;101440.81;5054144;28;45528;-47
2022/05/29 09:11:30;;;;;;;;;0.00;0.00;;;;;20.19;34.08;101438.25;5058711;28;45440;-50
2022/05/29 09:14:01;;;;;;;;;0.00;0.00;;;;;20.24;32.83;101446.00;5041179;28;45527;-46
2022/05/29 09:16:33;;;;;;;;;0.75;0.00;;;;;20.01;33.12;101440.59;5053348;28;46249;-46
2022/05/29 09:19:05;;;;;;;;;0.67;0.33;;;;;19.67;33.70;101440.56;5035409;28;45719;-46
2022/05/29 09:21:52;;;;;;;;;0.00;0.00;;;;;19.28;33.88;101450.75;5042083;28;45870;-47
2022/05/29 09:24:46;;;;;;;;;0.00;0.00;;;;;18.79;34.25;101442.69;5055107;28;45530;-48
2022/05/29 09:27:11;;;;;;;;;1.00;1.00;;;;;18.48;34.56;101433.34;5054577;28;46420;-50
2022/05/29 09:29:37;;;;;;;;;1.00;1.00;;;;;18.22;35.10;101438.78;5054797;28;66542;-49
2022/05/29 09:32:04;;;;;;;;;2.00;2.00;;;;;17.98;35.23;101438.75;5055478;28;45394;-46
2022/05/29 09:34:30;;;;;;;;;2.00;2.00;;;;;17.77;35.63;101433.88;5057776;28;46610;-46
2022/05/29 09:37:07;;;;;;;;;1.67;1.67;;;;;17.64;35.83;101433.88;5055512;28;45502;-50
2022/05/29 09:39:38;;;;;;;;;0.67;0.67;;;;;17.49;35.88;101424.19;5039630;28;45633;-47
2022/05/29 09:42:15;;;;;;;;;0.67;0.67;;;;;17.41;37.11;101419.31;5059332;28;45309;-45
2022/05/29 09:45:06;;;;;;;;;2.00;2.00;;;;;17.42;36.68;101429.13;5065418;28;45456;-47
2022/05/29 09:50:16;;;;;;;;;1.33;1.00;;;;;17.57;36.03;101419.13;5060174;28;45266;-46
2022/05/29 09:52:44;;;;;;;;;2.00;0.00;;;;;18.25;36.04;101417.03;5059274;28;45286;-48
2022/05/29 09:55:22;;;;;;;;;1.67;1.00;;;;;19.21;35.86;101412.63;5064079;28;45703;-50
2022/05/29 09:58:09;;;;;;;;;1.33;0.33;;;;;20.11;35.27;101411.03;5061982;28;46979;-55
2022/05/29 10:00:53;;;;;;;;;2.67;0.00;;;;;21.06;32.47;101402.31;5052504;28;46418;-55
2022/05/29 10:03:41;;;;;;;;;0.00;0.00;;;;;21.96;32.68;101397.28;5066767;28;45604;-59
2022/05/29 10:06:29;;;;;;;;;0.00;0.00;;;;;22.66;31.56;101396.47;5067721;28;45558;-60
2022/05/29 10:09:07;;;;;;;;;0.00;0.00;;;;;22.80;30.30;101387.91;5067527;28;46185;-59
2022/05/29 10:11:33;;;;;;;;;0.00;0.00;;;;;22.63;29.93;101389.47;5064752;27;45389;-59
2022/05/29 10:14:02;;;;;;;;;2.00;2.00;;;;;22.38;29.69;101393.59;5059547;28;61649;-59
2022/05/29 10:16:30;;;;;;;;;2.25;0.25;;;;;21.96;30.02;101398.13;5050668;28;45520;-59
2022/05/29 10:18:56;;;;;;;;;0.00;0.00;;;;;21.49;30.47;101392.34;5054569;28;47156;-59
2022/05/29 10:21:24;;;;;;;;;0.00;0.00;;;;;21.02;30.72;101389.19;5060654;28;45271;-59
2022/05/29 10:23:54;;;;;;;;;1.00;1.00;;;;;20.54;31.79;101387.75;5058480;28;45383;-59
2022/05/29 10:26:23;;;;;;;;;0.00;0.00;;;;;20.20;31.86;101393.22;5064866;28;45785;-61
2022/05/29 10:28:49;;;;;;;;;4.00;2.00;;;;;19.90;32.40;101392.03;5059411;28;45282;-59
2022/05/29 10:31:24;;;;;;;;;3.00;0.67;;;;;19.50;32.63;101398.72;5059403;28;45427;-59
2022/05/29 10:34:02;;;;;;;;;2.33;1.00;;;;;19.13;32.97;101401.59;5057341;28;46493;-59
2022/05/29 10:36:28;;;;;;;;;0.67;0.67;;;;;18.87;33.40;101393.63;5061912;28;45577;-59
2022/05/29 10:39:12;;;;;;;;;2.00;0.67;;;;;18.71;33.40;101388.53;5054381;28;46419;-59
2022/05/29 10:41:41;;;;;;;;;1.67;1.67;;;;;18.58;33.36;101391.28;5056302;28;45438;-60
2022/05/29 10:44:10;;;;;;;;;2.00;1.00;;;;;18.43;33.53;101387.03;5059657;28;45324;-59
2022/05/29 10:46:43;;;;;;;;;0.67;0.67;;;;;18.24;32.83;101387.50;5066095;28;45328;-60
2022/05/29 10:49:24;;;;;;;;;1.67;1.00;;;;;17.93;32.81;101379.00;5059012;28;47106;-59
2022/05/29 10:52:16;;;;;;;;;2.00;2.00;;;;;17.84;33.30;101383.16;5047366;28;45717;-60
2022/05/29 10:55:18;;;;;;;;;1.00;1.00;;;;;17.81;33.20;101384.25;5057166;28;45378;-60
2022/05/29 10:57:46;;;;;;;;;1.67;1.67;;;;;17.77;33.46;101379.19;5059905;28;45320;-60
2022/05/29 11:00:23;;;;;;;;;6.67;6.67;;;;;17.73;34.50;101373.19;5057439;28;46291;-60
2022/05/29 11:06:00;;;;;;;;;3.00;3.00;;;;;17.71;34.82;101369.72;5057416;28;45557;-60
2022/05/29 11:08:37;;;;;;;;;3.33;2.00;;;;;17.71;34.74;101371.56;5056498;28;45287;-60
2022/05/29 11:11:15;;;;;;;;;2.00;1.00;;;;;17.71;35.25;101366.19;5059886;28;46286;-60
2022/05/29 11:14:07;;;;;;;;;4.00;3.67;;;;;17.75;35.25;101357.78;5067682;28;45338;-60
2022/05/29 11:16:42;;;;;;;;;3.33;3.33;;;;;17.76;34.79;101362.19;5060090;28;45299;-60
2022/05/29 11:19:16;;;;;;;;;4.00;4.00;;;;;17.79;34.06;101359.28;5065535;28;45408;-60
2022/05/29 11:22:06;;;;;;;;;2.00;2.00;;;;;17.86;34.23;101357.88;5059051;28;45444;-60
2022/05/29 11:24:56;;;;;;;;;4.00;2.00;;;;;18.02;34.03;101352.28;5059482;28;45445;-60
2022/05/29 11:27:44;;;;;;;;;3.33;2.00;;;;;18.18;33.67;101353.84;5059855;28;45340;-60
2022/05/29 11:30:30;;;;;;;;;3.00;1.00;;;;;18.28;33.19;101352.19;5055807;28;45329;-60
2022/05/29 11:33:18;;;;;;;;;1.00;1.00;;;;;18.37;32.64;101345.28;5043606;28;46416;-60
2022/05/29 11:36:02;;;;;;;;;1.00;1.00;;;;;18.49;31.73;101340.78;5058327;28;45422;-60
2022/05/29 11:38:48;;;;;;;;;0.33;0.00;;;;;18.60;32.20;101340.81;5059697;28;45506;-60
2022/05/29 11:41:26;;;;;;;;;4.67;2.33;;;;;18.60;32.35;101324.66;5058105;28;45308;-60
2022/05/29 11:44:30;;;;;;;;;2.00;2.00;;;;;18.68;32.44;101324.09;5058363;28;46278;-60
2022/05/29 11:52:42;;;;;;;;;0.33;0.33;;;;;18.99;32.61;101311.88;5046984;28;45493;-60
2022/05/29 11:55:17;;;;;;;;;2.00;2.00;;;;;19.12;32.43;101305.50;5060022;28;46233;-60
2022/05/29 11:57:54;;;;;;;;;3.67;3.00;;;;;19.20;32.08;101300.34;5055279;28;45485;-60
2022/05/29 12:00:28;;;;;;;;;2.00;2.00;;;;;19.26;31.93;101294.47;5063731;28;45296;-60
2022/05/29 12:02:59;;;;;;;;;2.33;1.00;;;;;19.23;30.98;101294.75;5042572;28;45284;-60
2022/05/29 12:05:39;;;;;;;;;1.00;1.00;;;;;19.09;29.91;101297.66;5028339;28;46475;-60
2022/05/29 12:08:19;;;;;;;;;4.67;2.00;;;;;18.89;29.51;101288.38;5057762;28;45427;-60
2022/05/29 12:11:18;;;;;;;;;4.33;3.67;;;;;18.71;29.71;101280.75;5060018;28;45343;-59
2022/05/29 12:13:56;;;;;;;;;2.00;2.00;;;;;18.62;29.77;101284.16;5058538;28;45164;-58
2022/05/29 12:16:30;;;;;;;;;2.00;1.00;;;;;18.52;29.91;101276.78;5058571;28;45352;-59